Terminal Aerodrome Forecast
Issued by NWS

Home | Current Version | Previous Version | Text Only | Print | Product List | Glossary On
Versions: 1 2 3 4 5 6 7 8 9 10 11 12 13 14 15 16
000
FTUS46 KSEW 271120
TAFHQM
TAF
KHQM 271120Z 2712/2812 00000KT 5SM BR OVC004
      TEMPO 2712/2716 2SM BR OVC002
     FM271700 27007KT 5SM BR BKN010
     FM272000 24012KT P6SM SCT015 SCT120 BKN200
     FM280400 24006KT 5SM BR BKN010
     FM280800 VRB03KT 3SM BR OVC004=

USA.gov is the U.S. government's official web portal to all federal, state and local government web resources and services.